createdAt,value
2023-05-08T00:01:26.344Z,3.63
2023-05-08T00:03:55.106Z,3.60
2023-05-08T00:06:23.029Z,3.77
2023-05-08T00:08:51.159Z,3.47
2023-05-08T00:11:21.264Z,3.73
2023-05-08T00:13:49.310Z,3.50
2023-05-08T00:16:17.766Z,5.07
2023-05-08T00:18:45.591Z,3.57
2023-05-08T00:21:14.711Z,4.07
2023-05-08T00:23:42.426Z,3.20
2023-05-08T00:26:10.093Z,3.30
2023-05-08T00:28:40.148Z,3.57
2023-05-08T00:31:07.883Z,3.53
2023-05-08T00:33:35.536Z,3.43
2023-05-08T00:36:04.317Z,3.33
2023-05-08T00:38:32.820Z,3.30
2023-05-08T00:41:01.738Z,4.23
2023-05-08T00:43:29.514Z,3.07
2023-05-08T00:46:01.915Z,4.00
2023-05-08T00:48:31.604Z,3.07
2023-05-08T00:51:04.813Z,3.40
2023-05-08T00:53:37.010Z,3.27
2023-05-08T00:56:06.594Z,3.83
2023-05-08T00:58:34.553Z,3.17
2023-05-08T01:01:04.773Z,3.43
2023-05-08T01:03:34.112Z,3.40
2023-05-08T01:06:03.324Z,3.70
2023-05-08T01:08:32.728Z,4.30
2023-05-08T01:11:17.643Z,4.10
2023-05-08T01:13:52.972Z,3.77
2023-05-08T01:16:33.783Z,3.60
2023-05-08T01:19:09.141Z,3.17
2023-05-08T01:21:41.574Z,3.50
2023-05-08T01:24:44.224Z,3.70
2023-05-08T01:27:40.293Z,3.20
2023-05-08T01:30:38.084Z,4.50
2023-05-08T01:33:26.032Z,3.60
2023-05-08T01:36:00.311Z,3.53
2023-05-08T01:38:33.466Z,3.70
2023-05-08T01:41:13.062Z,3.70
2023-05-08T01:43:50.252Z,3.80
2023-05-08T01:46:21.859Z,3.97
2023-05-08T01:48:57.457Z,3.70
2023-05-08T01:51:28.697Z,3.40
2023-05-08T01:54:01.538Z,4.00
2023-05-08T01:56:30.884Z,3.67
2023-05-08T01:59:01.280Z,3.73
2023-05-08T02:01:31.118Z,4.03
2023-05-08T02:04:02.712Z,4.33
2023-05-08T02:06:32.405Z,3.80
2023-05-08T02:09:02.303Z,4.00
2023-05-08T02:11:32.957Z,4.20
2023-05-08T02:14:03.084Z,4.30
2023-05-08T02:16:32.616Z,4.60
2023-05-08T02:19:03.955Z,4.50
2023-05-08T02:21:32.866Z,4.40
2023-05-08T02:24:02.323Z,4.17
2023-05-08T02:26:30.827Z,5.10
2023-05-08T02:28:59.901Z,4.97
2023-05-08T02:31:29.222Z,4.43
2023-05-08T02:33:59.319Z,4.43
2023-05-08T02:36:30.598Z,4.53
2023-05-08T02:39:02.264Z,4.50
2023-05-08T02:41:33.673Z,5.10
2023-05-08T02:44:02.337Z,4.83
2023-05-08T02:46:40.769Z,4.37
2023-05-08T02:49:12.970Z,5.33
2023-05-08T02:51:51.992Z,4.63
2023-05-08T02:54:24.986Z,5.47
2023-05-08T02:56:59.411Z,5.67
2023-05-08T02:59:32.519Z,5.33
2023-05-08T03:02:04.713Z,5.07
2023-05-08T03:04:37.402Z,5.67
2023-05-08T03:07:07.696Z,5.47
2023-05-08T03:09:44.361Z,5.50
2023-05-08T03:12:16.271Z,5.50
2023-05-08T03:14:51.465Z,4.93
2023-05-08T03:17:21.392Z,5.27
2023-05-08T03:19:53.540Z,5.23
2023-05-08T03:22:25.275Z,5.23
2023-05-08T03:24:55.825Z,5.53
2023-05-08T03:27:25.959Z,5.27
2023-05-08T03:29:55.456Z,5.27
2023-05-08T03:32:25.793Z,5.50
2023-05-08T03:34:55.652Z,4.80
2023-05-08T03:37:25.253Z,5.40
2023-05-08T03:39:53.469Z,5.80
2023-05-08T03:42:22.565Z,5.10
2023-05-08T03:44:51.740Z,5.60
2023-05-08T03:47:20.540Z,5.03
2023-05-08T03:49:50.192Z,5.10
2023-05-08T03:52:19.245Z,5.47
2023-05-08T03:54:48.518Z,6.00
2023-05-08T03:57:16.235Z,5.60
2023-05-08T03:59:51.948Z,5.63
2023-05-08T04:02:26.834Z,6.50
2023-05-08T04:05:02.967Z,6.00
2023-05-08T04:07:34.341Z,5.50
2023-05-08T04:10:11.249Z,5.90
2023-05-08T04:12:46.227Z,5.90
2023-05-08T04:15:20.119Z,6.13
2023-05-08T04:17:59.136Z,5.87
2023-05-08T04:20:28.590Z,6.17
2023-05-08T04:22:58.088Z,6.17
2023-05-08T04:25:27.818Z,5.90
2023-05-08T04:27:57.821Z,6.70
2023-05-08T04:30:26.132Z,6.20
2023-05-08T04:32:55.978Z,5.97
2023-05-08T04:35:23.996Z,5.70
2023-05-08T04:37:51.890Z,5.93
2023-05-08T04:40:20.057Z,6.00
2023-05-08T04:42:50.563Z,5.77
2023-05-08T04:45:19.510Z,6.17
2023-05-08T04:47:55.041Z,6.60
2023-05-08T04:50:23.141Z,6.53
2023-05-08T04:52:52.742Z,6.83
2023-05-08T04:55:21.536Z,5.90
2023-05-08T04:57:51.127Z,6.90
2023-05-08T05:00:21.197Z,6.17
2023-05-08T05:02:48.931Z,6.63
2023-05-08T05:05:17.229Z,6.30
2023-05-08T05:07:45.213Z,6.23
2023-05-08T05:10:13.618Z,6.30
2023-05-08T05:12:42.347Z,6.77
2023-05-08T05:15:13.849Z,6.30
2023-05-08T05:17:41.877Z,6.13
2023-05-08T05:20:10.561Z,6.17
2023-05-08T05:22:39.845Z,6.30
2023-05-08T05:25:08.804Z,6.20
2023-05-08T05:27:37.623Z,6.30
2023-05-08T05:30:06.072Z,6.27
2023-05-08T05:32:35.686Z,7.07
2023-05-08T05:35:03.591Z,6.63
2023-05-08T05:37:31.719Z,6.17
2023-05-08T05:39:59.828Z,5.73
2023-05-08T05:42:27.837Z,6.10
2023-05-08T05:44:56.711Z,6.30
2023-05-08T05:47:24.844Z,6.30
2023-05-08T05:49:54.053Z,5.83
2023-05-08T05:52:21.824Z,5.50
2023-05-08T05:54:49.629Z,5.63
2023-05-08T05:57:19.704Z,5.70
2023-05-08T05:59:47.389Z,5.50
2023-05-08T06:02:19.164Z,5.67
2023-05-08T06:04:47.429Z,5.83
2023-05-08T06:07:17.680Z,7.33
2023-05-08T06:09:45.364Z,5.80
2023-05-08T06:12:13.440Z,5.77
2023-05-08T06:14:41.078Z,5.37
2023-05-08T06:17:09.874Z,5.40
2023-05-08T06:19:37.952Z,5.63
2023-05-08T06:22:06.268Z,5.60
2023-05-08T06:24:36.604Z,6.37
2023-05-08T06:27:04.596Z,6.00
2023-05-08T06:29:33.375Z,5.00
2023-05-08T06:32:01.136Z,5.40
2023-05-08T06:34:28.960Z,4.97
2023-05-08T06:36:56.912Z,6.43
2023-05-08T06:39:24.598Z,5.47
2023-05-08T06:41:53.796Z,5.70
2023-05-08T06:44:23.168Z,5.37
2023-05-08T06:46:52.055Z,5.87
2023-05-08T06:49:20.603Z,5.23
2023-05-08T06:51:48.756Z,5.50
2023-05-08T06:54:16.667Z,5.30
2023-05-08T06:56:44.434Z,5.60
2023-05-08T06:59:13.608Z,5.30
2023-05-08T07:01:43.887Z,5.30
2023-05-08T07:04:11.704Z,5.20
2023-05-08T07:06:39.949Z,5.40
2023-05-08T07:09:09.359Z,5.33
2023-05-08T07:11:37.957Z,6.40
2023-05-08T07:14:05.612Z,5.00
2023-05-08T07:16:35.654Z,5.20
2023-05-08T07:19:03.401Z,5.20
2023-05-08T07:21:31.309Z,5.53
2023-05-08T07:23:59.037Z,5.50
2023-05-08T07:26:27.502Z,5.23
2023-05-08T07:28:55.378Z,5.43
2023-05-08T07:31:23.768Z,5.37
2023-05-08T07:33:53.240Z,5.23
2023-05-08T07:36:21.291Z,5.40
2023-05-08T07:38:49.144Z,5.37
2023-05-08T07:41:16.820Z,6.00
2023-05-08T07:43:45.329Z,5.30
2023-05-08T07:46:19.059Z,5.40
2023-05-08T07:48:46.962Z,5.53
2023-05-08T07:51:16.703Z,5.30
2023-05-08T07:53:45.037Z,5.37
2023-05-08T07:56:13.536Z,5.23
2023-05-08T07:58:43.254Z,5.63
2023-05-08T08:01:11.016Z,5.20
2023-05-08T08:03:39.368Z,5.07
2023-05-08T08:06:07.190Z,4.83
2023-05-08T08:08:36.371Z,5.37
2023-05-08T08:11:04.403Z,5.60
2023-05-08T08:13:33.052Z,5.30
2023-05-08T08:16:01.067Z,5.13
2023-05-08T08:18:29.715Z,7.17
2023-05-08T08:20:57.444Z,5.70
2023-05-08T08:23:25.896Z,5.17
2023-05-08T08:25:55.245Z,5.30
2023-05-08T08:28:23.229Z,5.13
2023-05-08T08:30:50.965Z,5.20
2023-05-08T08:33:19.443Z,4.93
2023-05-08T08:35:47.588Z,5.23
2023-05-08T08:38:15.515Z,4.83
2023-05-08T08:40:43.687Z,4.70
2023-05-08T08:43:13.141Z,5.20
2023-05-08T08:45:41.569Z,4.73
2023-05-08T08:48:12.630Z,5.27
2023-05-08T08:50:43.941Z,5.47
2023-05-08T08:53:15.663Z,4.60
2023-05-08T08:55:47.709Z,4.57
2023-05-08T08:58:25.213Z,5.23
2023-05-08T09:00:55.112Z,4.97
2023-05-08T09:03:23.322Z,4.40
2023-05-08T09:05:52.326Z,5.30
2023-05-08T09:08:21.553Z,5.00
2023-05-08T09:10:49.492Z,4.80
2023-05-08T09:13:19.790Z,5.37
2023-05-08T09:15:48.992Z,4.30
2023-05-08T09:18:17.523Z,5.70
2023-05-08T09:20:46.241Z,5.67
2023-05-08T09:23:14.946Z,5.93
2023-05-08T09:25:45.480Z,6.50
2023-05-08T09:28:18.631Z,5.10
2023-05-08T09:30:50.965Z,6.00
2023-05-08T09:33:19.080Z,5.93
2023-05-08T09:35:48.450Z,6.13
2023-05-08T09:38:39.246Z,4.87
2023-05-08T09:41:08.817Z,4.97
2023-05-08T09:43:38.615Z,4.90
2023-05-08T09:46:25.810Z,5.20
2023-05-08T09:48:55.221Z,4.70
2023-05-08T09:51:23.400Z,4.73
2023-05-08T09:53:53.568Z,5.83
2023-05-08T09:56:32.043Z,5.30
2023-05-08T09:59:03.224Z,6.23
2023-05-08T10:01:34.511Z,5.10
2023-05-08T10:04:03.848Z,5.30
2023-05-08T10:06:32.205Z,4.80
2023-05-08T10:09:19.677Z,5.30
2023-05-08T10:11:52.384Z,5.07
2023-05-08T10:14:22.727Z,5.10
2023-05-08T10:16:51.970Z,4.73
2023-05-08T10:19:21.316Z,5.00
2023-05-08T10:21:50.617Z,5.10
2023-05-08T10:24:20.392Z,5.33
2023-05-08T10:27:06.188Z,5.87
2023-05-08T10:29:43.935Z,5.00
2023-05-08T10:32:14.654Z,5.90
2023-05-08T10:34:42.856Z,5.10
2023-05-08T10:37:11.564Z,5.17
2023-05-08T10:39:40.256Z,5.40
2023-05-08T10:42:09.364Z,4.90
2023-05-08T10:44:39.777Z,4.83
2023-05-08T10:47:17.456Z,5.13
2023-05-08T10:49:53.167Z,5.07
2023-05-08T10:52:29.341Z,5.83
2023-05-08T10:55:19.587Z,5.13
2023-05-08T10:58:06.472Z,5.17
2023-05-08T11:01:14.014Z,5.10
2023-05-08T11:03:53.600Z,5.33
2023-05-08T11:06:45.632Z,4.97
2023-05-08T11:09:23.529Z,5.73
2023-05-08T11:12:04.897Z,4.40
2023-05-08T11:14:33.916Z,4.68
2023-05-08T11:17:10.424Z,4.70
2023-05-08T11:19:38.964Z,5.30
2023-05-08T11:22:17.197Z,4.70
2023-05-08T11:24:55.566Z,4.15
2023-05-08T11:27:37.091Z,7.43
2023-05-08T11:30:36.140Z,6.57
2023-05-08T11:33:18.987Z,8.35
2023-05-08T11:35:55.848Z,7.38
2023-05-08T11:38:33.008Z,7.40
2023-05-08T11:41:06.959Z,7.15
2023-05-08T11:44:04.740Z,7.93
2023-05-08T11:46:40.989Z,7.40
2023-05-08T11:49:16.833Z,7.03
2023-05-08T11:51:48.827Z,7.75
2023-05-08T11:54:20.097Z,7.87
2023-05-08T11:56:49.093Z,6.90
2023-05-08T11:59:18.164Z,6.00
2023-05-08T12:01:53.525Z,7.57
2023-05-08T12:04:30.142Z,7.18
2023-05-08T12:06:59.108Z,7.65
2023-05-08T12:09:29.102Z,6.40
2023-05-08T12:11:59.933Z,7.60
2023-05-08T12:14:28.866Z,6.65
2023-05-08T12:16:57.165Z,5.85
2023-05-08T12:19:24.901Z,7.20
2023-05-08T12:21:57.762Z,7.80
2023-05-08T12:24:26.750Z,6.95
2023-05-08T12:26:56.650Z,6.97
2023-05-08T12:29:25.847Z,6.82
2023-05-08T12:31:55.212Z,5.97
2023-05-08T12:34:23.684Z,5.88
2023-05-08T12:37:04.837Z,5.18
2023-05-08T12:39:37.633Z,6.38
2023-05-08T12:42:07.799Z,5.90
2023-05-08T12:44:35.693Z,6.00
2023-05-08T12:47:05.735Z,6.45
2023-05-08T12:49:34.107Z,6.22
2023-05-08T12:52:06.189Z,5.80
2023-05-08T12:54:38.363Z,6.88
2023-05-08T12:57:12.970Z,7.57
2023-05-08T12:59:42.300Z,6.25
2023-05-08T13:02:17.226Z,6.72
2023-05-08T13:04:45.698Z,6.10
2023-05-08T13:07:15.689Z,5.30
2023-05-08T13:09:59.284Z,6.15
2023-05-08T13:12:26.956Z,6.45
2023-05-08T13:14:56.169Z,6.13
2023-05-08T13:17:24.293Z,6.55
2023-05-08T13:19:53.562Z,5.70
2023-05-08T13:22:26.519Z,6.82
2023-05-08T13:24:55.011Z,5.28
2023-05-08T13:27:23.658Z,12.32
2023-05-08T13:29:51.307Z,5.28
2023-05-08T13:32:20.396Z,5.93
2023-05-08T13:34:51.411Z,5.22
2023-05-08T13:37:22.488Z,5.47
2023-05-08T13:39:51.314Z,5.20
2023-05-08T13:42:19.332Z,5.75
2023-05-08T13:44:49.281Z,5.47
2023-05-08T13:47:17.439Z,4.88
2023-05-08T13:49:47.229Z,4.50
2023-05-08T13:52:15.078Z,4.43
2023-05-08T13:54:44.514Z,4.35
2023-05-08T13:57:12.793Z,4.30
2023-05-08T13:59:40.709Z,5.10
2023-05-08T14:02:10.640Z,4.85
2023-05-08T14:04:38.540Z,4.85
2023-05-08T14:07:07.866Z,4.80
2023-05-08T14:09:36.353Z,4.22
2023-05-08T14:12:05.676Z,4.63
2023-05-08T14:14:34.531Z,4.88
2023-05-08T14:17:03.606Z,4.75
2023-05-08T14:19:32.583Z,4.70
2023-05-08T14:22:00.467Z,4.72
2023-05-08T14:24:28.582Z,5.65
2023-05-08T14:26:56.668Z,5.45
2023-05-08T14:29:26.515Z,6.93
2023-05-08T14:31:54.263Z,7.40
2023-05-08T14:34:22.422Z,7.17
2023-05-08T14:36:50.730Z,7.03
2023-05-08T14:39:18.515Z,5.57
2023-05-08T14:42:05.218Z,6.20
2023-05-08T14:44:35.917Z,6.30
2023-05-08T14:47:04.177Z,5.57
2023-05-08T14:49:38.051Z,6.30
2023-05-08T14:52:09.303Z,8.17
2023-05-08T14:54:37.572Z,8.63
2023-05-08T14:57:06.596Z,5.73
2023-05-08T14:59:36.369Z,5.27
2023-05-08T15:02:06.011Z,4.63
2023-05-08T15:04:36.066Z,4.17
2023-05-08T15:07:05.764Z,4.27
2023-05-08T15:09:33.819Z,3.43
2023-05-08T15:12:03.380Z,3.40
2023-05-08T15:14:31.242Z,4.83
2023-05-08T15:17:01.611Z,2.63
2023-05-08T15:19:30.224Z,3.23
2023-05-08T15:21:58.767Z,3.70
2023-05-08T15:24:30.018Z,4.70
2023-05-08T15:26:58.328Z,4.07
2023-05-08T15:29:28.031Z,3.40
2023-05-08T15:31:56.465Z,4.40
2023-05-08T15:34:29.224Z,3.20
2023-05-08T15:37:00.825Z,6.13
2023-05-08T15:39:30.621Z,3.40
2023-05-08T15:41:58.740Z,3.20
2023-05-08T15:44:37.695Z,2.77
2023-05-08T15:47:15.544Z,3.67
2023-05-08T15:49:46.458Z,3.80
2023-05-08T15:52:15.870Z,4.40
2023-05-08T15:54:43.779Z,3.40
2023-05-08T15:57:11.916Z,3.43
2023-05-08T15:59:39.692Z,3.53
2023-05-08T16:02:07.732Z,3.67
2023-05-08T16:04:35.759Z,4.43
2023-05-08T16:07:05.166Z,5.43
2023-05-08T16:09:33.119Z,5.20
2023-05-08T16:12:01.180Z,3.70
2023-05-08T16:14:28.852Z,3.33
2023-05-08T16:16:57.939Z,4.43
2023-05-08T16:19:25.717Z,4.20
2023-05-08T16:21:53.561Z,4.50
2023-05-08T16:24:23.565Z,4.37
2023-05-08T16:26:51.534Z,3.67
2023-05-08T16:29:19.516Z,3.63
2023-05-08T16:31:47.234Z,4.03
2023-05-08T16:34:15.464Z,3.93
2023-05-08T16:36:43.602Z,3.93
2023-05-08T16:39:12.017Z,3.70
2023-05-08T16:41:41.504Z,3.80
2023-05-08T16:44:10.273Z,3.23
2023-05-08T16:46:38.226Z,4.00
2023-05-08T16:49:05.979Z,4.20
2023-05-08T16:51:36.308Z,3.67
2023-05-08T16:54:04.456Z,3.70
2023-05-08T16:56:33.131Z,3.23
2023-05-08T16:59:06.384Z,4.03
2023-05-08T17:01:35.246Z,4.03
2023-05-08T17:04:03.254Z,3.73
2023-05-08T17:06:31.214Z,4.10
2023-05-08T17:08:59.123Z,3.97
2023-05-08T17:11:27.935Z,4.33
2023-05-08T17:13:55.635Z,4.20
2023-05-08T17:16:27.467Z,4.03
2023-05-08T17:18:55.454Z,3.87
2023-05-08T17:21:23.496Z,4.10
2023-05-08T17:23:51.446Z,4.50
2023-05-08T17:26:19.615Z,4.43
2023-05-08T17:28:48.470Z,3.83
2023-05-08T17:31:17.325Z,4.17
2023-05-08T17:33:47.351Z,4.30
2023-05-08T17:36:15.559Z,4.70
2023-05-08T17:38:46.156Z,4.43
2023-05-08T17:41:14.591Z,4.87
2023-05-08T17:43:43.901Z,4.40
2023-05-08T17:46:12.175Z,4.57
2023-05-08T17:48:40.067Z,5.03
2023-05-08T17:51:13.628Z,6.13
2023-05-08T17:53:41.438Z,5.00
2023-05-08T17:56:09.672Z,5.90
2023-05-08T17:58:37.411Z,5.37
2023-05-08T18:01:05.374Z,6.03
2023-05-08T18:03:33.778Z,5.37
2023-05-08T18:06:02.467Z,5.40
2023-05-08T18:08:32.049Z,5.33
2023-05-08T18:11:01.778Z,5.10
2023-05-08T18:13:33.063Z,5.13
2023-05-08T18:16:01.026Z,5.00
2023-05-08T18:18:29.679Z,5.67
2023-05-08T18:20:57.719Z,4.70
2023-05-08T18:23:25.453Z,5.70
2023-05-08T18:25:55.406Z,5.80
2023-05-08T18:28:23.557Z,5.70
2023-05-08T18:30:51.270Z,5.83
2023-05-08T18:33:18.997Z,5.30
2023-05-08T18:35:47.316Z,6.50
2023-05-08T18:38:17.913Z,5.50
2023-05-08T18:40:46.206Z,6.73
2023-05-08T18:43:15.449Z,6.77
2023-05-08T18:45:47.873Z,6.87
2023-05-08T18:48:15.613Z,6.87
2023-05-08T18:50:43.265Z,7.00
2023-05-08T18:53:11.108Z,7.47
2023-05-08T18:55:38.818Z,6.80
2023-05-08T18:58:06.814Z,7.70
2023-05-08T19:00:36.213Z,8.13
2023-05-08T19:03:04.093Z,6.97
2023-05-08T19:05:32.517Z,7.40
2023-05-08T19:08:00.644Z,8.20
2023-05-08T19:10:28.864Z,7.10
2023-05-08T19:12:56.977Z,7.60
2023-05-08T19:15:25.440Z,7.67
2023-05-08T19:17:55.429Z,7.97
2023-05-08T19:20:23.797Z,6.97
2023-05-08T19:22:52.118Z,7.87
2023-05-08T19:25:20.025Z,8.07
2023-05-08T19:27:48.169Z,8.80
2023-05-08T19:30:16.684Z,9.33
2023-05-08T19:32:47.071Z,8.40
2023-05-08T19:35:16.440Z,8.77
2023-05-08T19:37:44.790Z,9.20
2023-05-08T19:40:13.698Z,9.30
2023-05-08T19:42:43.405Z,9.17
2023-05-08T19:45:14.157Z,9.27
2023-05-08T19:47:42.094Z,9.27
2023-05-08T19:50:12.588Z,8.50
2023-05-08T19:52:41.951Z,8.60
2023-05-08T19:55:10.475Z,9.90
2023-05-08T19:57:38.811Z,9.17
2023-05-08T20:00:08.312Z,9.87
2023-05-08T20:02:36.167Z,9.70
2023-05-08T20:05:21.762Z,9.67
2023-05-08T20:07:51.950Z,10.33
2023-05-08T20:10:19.843Z,10.90
2023-05-08T20:12:47.563Z,10.80
2023-05-08T20:15:15.956Z,9.93
2023-05-08T20:17:43.859Z,9.47
2023-05-08T20:20:13.295Z,9.90
2023-05-08T20:22:41.401Z,9.23
2023-05-08T20:25:10.934Z,10.20
2023-05-08T20:27:38.634Z,9.03
2023-05-08T20:30:07.816Z,8.80
2023-05-08T20:32:36.019Z,9.93
2023-05-08T20:35:04.053Z,9.20
2023-05-08T20:37:32.045Z,9.27
2023-05-08T20:40:00.028Z,8.60
2023-05-08T20:42:30.836Z,8.67
2023-05-08T20:44:58.792Z,8.70
2023-05-08T20:47:26.875Z,8.10
2023-05-08T20:49:54.973Z,8.60
2023-05-08T20:52:22.730Z,8.40
2023-05-08T20:54:50.694Z,8.37
2023-05-08T20:57:18.934Z,7.77
2023-05-08T20:59:48.163Z,7.00
2023-05-08T21:02:16.130Z,7.57
2023-05-08T21:04:44.290Z,6.33
2023-05-08T21:07:12.406Z,6.37
2023-05-08T21:09:40.317Z,6.40
2023-05-08T21:12:08.508Z,5.80
2023-05-08T21:14:37.720Z,5.90
2023-05-08T21:17:07.425Z,5.90
2023-05-08T21:19:35.520Z,5.13
2023-05-08T21:22:03.316Z,5.00
2023-05-08T21:24:31.253Z,5.43
2023-05-08T21:27:00.053Z,5.43
2023-05-08T21:29:28.104Z,4.67
2023-05-08T21:31:56.101Z,4.27
2023-05-08T21:34:27.257Z,5.10
2023-05-08T21:36:54.887Z,4.73
2023-05-08T21:39:22.949Z,4.57
2023-05-08T21:41:52.771Z,4.73
2023-05-08T21:44:21.127Z,4.57
2023-05-08T21:46:49.081Z,4.30
2023-05-08T21:49:17.215Z,4.97
2023-05-08T21:51:46.638Z,4.53
2023-05-08T21:54:14.319Z,4.30
2023-05-08T21:56:42.063Z,4.13
2023-05-08T21:59:09.851Z,4.37
2023-05-08T22:01:37.777Z,4.80
2023-05-08T22:04:05.488Z,5.20
2023-05-08T22:06:33.194Z,5.00
2023-05-08T22:09:02.371Z,4.57
2023-05-08T22:11:31.581Z,4.70
2023-05-08T22:13:59.281Z,4.60
2023-05-08T22:16:27.263Z,4.43
2023-05-08T22:19:02.275Z,5.27
2023-05-08T22:21:30.482Z,4.70
2023-05-08T22:23:58.563Z,4.40
2023-05-08T22:26:28.806Z,4.57
2023-05-08T22:28:56.693Z,4.57
2023-05-08T22:31:24.778Z,4.70
2023-05-08T22:34:11.263Z,4.30
2023-05-08T22:36:39.060Z,4.40
2023-05-08T22:39:07.659Z,4.40
2023-05-08T22:41:37.517Z,4.83
2023-05-08T22:44:05.479Z,4.43
2023-05-08T22:46:33.654Z,6.57
2023-05-08T22:49:04.652Z,4.60
2023-05-08T22:51:32.847Z,5.03
2023-05-08T22:54:00.910Z,4.30
2023-05-08T22:56:29.313Z,4.63
2023-05-08T22:58:58.670Z,5.03
2023-05-08T23:01:26.567Z,4.57
2023-05-08T23:03:54.746Z,5.83
2023-05-08T23:06:22.516Z,4.83
2023-05-08T23:08:50.267Z,4.70
2023-05-08T23:11:18.720Z,5.10
2023-05-08T23:13:46.522Z,4.60
2023-05-08T23:16:15.589Z,4.97
2023-05-08T23:18:43.473Z,5.17
2023-05-08T23:21:11.257Z,5.30
2023-05-08T23:23:39.181Z,5.23
2023-05-08T23:26:06.982Z,5.00
2023-05-08T23:28:37.583Z,4.60
2023-05-08T23:31:05.521Z,5.23
2023-05-08T23:33:34.966Z,4.60
2023-05-08T23:36:02.691Z,4.37
2023-05-08T23:38:31.057Z,4.77
2023-05-08T23:41:00.195Z,5.20
2023-05-08T23:43:29.105Z,4.93
2023-05-08T23:45:58.745Z,5.50
2023-05-08T23:48:27.041Z,5.00
2023-05-08T23:50:56.569Z,4.60
2023-05-08T23:53:24.396Z,4.47
2023-05-08T23:55:53.433Z,4.80
2023-05-08T23:58:21.215Z,4.43
